createdAt,value
2022-09-22T00:02:07.977Z,2.67
2022-09-22T00:04:34.399Z,2.72
2022-09-22T00:07:00.756Z,2.79
2022-09-22T00:09:27.127Z,2.88
2022-09-22T00:11:53.501Z,2.64
2022-09-22T00:14:19.869Z,2.94
2022-09-22T00:16:46.269Z,2.60
2022-09-22T00:19:12.672Z,2.58
2022-09-22T00:21:39.033Z,2.57
2022-09-22T00:24:05.512Z,2.51
2022-09-22T00:26:32.013Z,2.43
2022-09-22T00:28:58.368Z,2.80
2022-09-22T00:31:24.829Z,2.66
2022-09-22T00:33:51.289Z,2.48
2022-09-22T00:36:17.672Z,2.56
2022-09-22T00:38:44.034Z,2.59
2022-09-22T00:41:10.420Z,2.61
2022-09-22T00:43:36.782Z,2.56
2022-09-22T00:46:03.153Z,2.56
2022-09-22T00:48:29.524Z,2.71
2022-09-22T00:50:55.885Z,2.49
2022-09-22T00:53:22.254Z,2.50
2022-09-22T00:55:48.630Z,2.56
2022-09-22T00:58:14.993Z,2.43
2022-09-22T01:00:41.360Z,2.52
2022-09-22T01:03:07.753Z,2.27
2022-09-22T01:05:34.111Z,2.52
2022-09-22T01:08:00.473Z,2.20
2022-09-22T01:10:26.855Z,2.26
2022-09-22T01:12:53.227Z,2.37
2022-09-22T01:15:19.614Z,2.17
2022-09-22T01:17:45.982Z,2.44
2022-09-22T01:20:12.349Z,2.45
2022-09-22T01:22:38.703Z,2.16
2022-09-22T01:25:05.068Z,2.14
2022-09-22T01:27:31.449Z,2.08
2022-09-22T01:29:57.821Z,2.17
2022-09-22T01:32:24.183Z,2.17
2022-09-22T01:34:50.542Z,2.15
2022-09-22T01:37:16.911Z,2.01
2022-09-22T01:39:43.260Z,2.05
2022-09-22T01:42:09.623Z,2.33
2022-09-22T01:44:35.997Z,2.22
2022-09-22T01:47:02.357Z,2.21
2022-09-22T01:49:28.724Z,2.21
2022-09-22T01:51:55.093Z,2.13
2022-09-22T01:54:21.455Z,2.12
2022-09-22T01:56:47.817Z,1.98
2022-09-22T01:59:14.191Z,2.14
2022-09-22T02:01:40.634Z,1.94
2022-09-22T02:04:07.052Z,2.18
2022-09-22T02:06:33.428Z,2.01
2022-09-22T02:08:59.843Z,2.04
2022-09-22T02:11:26.265Z,2.06
2022-09-22T02:13:52.633Z,1.78
2022-09-22T02:16:19.058Z,1.83
2022-09-22T02:18:45.488Z,2.00
2022-09-22T02:21:11.841Z,1.92
2022-09-22T02:23:38.206Z,1.96
2022-09-22T02:26:04.584Z,1.88
2022-09-22T02:28:30.939Z,2.03
2022-09-22T02:31:18.607Z,2.11
2022-09-22T02:33:43.790Z,1.82
2022-09-22T02:36:10.160Z,1.88
2022-09-22T02:38:36.517Z,1.93
2022-09-22T02:41:02.885Z,1.93
2022-09-22T02:43:29.255Z,1.78
2022-09-22T02:45:55.661Z,1.91
2022-09-22T02:48:22.055Z,1.75
2022-09-22T02:50:48.434Z,1.99
2022-09-22T02:53:14.798Z,1.94
2022-09-22T02:55:41.165Z,2.00
2022-09-22T02:58:07.531Z,1.91
2022-09-22T03:00:33.889Z,1.78
2022-09-22T03:03:00.249Z,1.83
2022-09-22T03:05:26.611Z,1.78
2022-09-22T03:07:52.985Z,1.87
2022-09-22T03:10:19.362Z,1.68
2022-09-22T03:13:09.131Z,1.68
2022-09-22T03:15:32.183Z,1.70
2022-09-22T03:17:58.590Z,1.68
2022-09-22T03:20:24.962Z,1.68
2022-09-22T03:22:51.324Z,1.70
2022-09-22T03:25:17.693Z,1.82
2022-09-22T03:27:44.065Z,1.76
2022-09-22T03:30:10.435Z,1.91
2022-09-22T03:32:36.783Z,1.59
2022-09-22T03:35:03.226Z,1.63
2022-09-22T03:37:29.614Z,1.66
2022-09-22T03:39:58.798Z,1.76
2022-09-22T03:42:25.177Z,1.68
2022-09-22T03:44:51.540Z,1.62
2022-09-22T03:47:17.892Z,1.58
2022-09-22T03:49:44.260Z,1.86
2022-09-22T03:54:51.082Z,1.82
2022-09-22T03:57:17.548Z,1.69
2022-09-22T03:59:43.910Z,1.82
2022-09-22T04:02:10.302Z,1.71
2022-09-22T04:04:36.703Z,1.65
2022-09-22T04:07:07.159Z,1.86
2022-09-22T04:09:33.980Z,1.80
2022-09-22T04:12:00.387Z,1.54
2022-09-22T04:14:26.743Z,1.71
2022-09-22T04:16:53.148Z,1.68
2022-09-22T04:19:19.537Z,1.66
2022-09-22T04:21:45.902Z,1.62
2022-09-22T04:24:12.278Z,1.49
2022-09-22T04:26:38.637Z,1.68
2022-09-22T04:29:04.996Z,1.57
2022-09-22T04:31:31.385Z,1.53
2022-09-22T04:33:57.749Z,1.72
2022-09-22T04:36:24.109Z,1.57
2022-09-22T04:38:50.479Z,1.56
2022-09-22T04:41:16.832Z,1.80
2022-09-22T04:43:43.188Z,1.73
2022-09-22T04:46:09.587Z,1.76
2022-09-22T04:48:35.969Z,1.84
2022-09-22T04:51:02.331Z,1.62
2022-09-22T04:53:28.698Z,1.53
2022-09-22T04:55:55.071Z,1.52
2022-09-22T04:58:21.427Z,1.52
2022-09-22T05:00:47.789Z,1.62
2022-09-22T05:03:16.524Z,1.58
2022-09-22T05:05:46.344Z,1.44
2022-09-22T05:08:12.717Z,1.42
2022-09-22T05:10:39.081Z,1.57
2022-09-22T05:13:05.445Z,1.63
2022-09-22T05:15:31.815Z,1.57
2022-09-22T05:17:58.173Z,1.67
2022-09-22T05:20:24.538Z,1.53
2022-09-22T05:22:50.911Z,1.58
2022-09-22T05:25:17.283Z,1.55
2022-09-22T05:27:43.695Z,1.52
2022-09-22T05:30:10.043Z,1.40
2022-09-22T05:32:36.403Z,1.49
2022-09-22T05:35:02.770Z,1.52
2022-09-22T05:37:29.130Z,1.48
2022-09-22T05:39:55.501Z,1.47
2022-09-22T05:42:21.872Z,1.59
2022-09-22T05:44:48.234Z,1.43
2022-09-22T05:47:14.607Z,1.51
2022-09-22T05:49:40.973Z,1.52
2022-09-22T05:52:07.321Z,1.44
2022-09-22T05:54:33.700Z,1.68
2022-09-22T05:57:00.063Z,1.50
2022-09-22T05:59:26.440Z,1.48
2022-09-22T06:01:57.395Z,1.40
2022-09-22T06:04:25.771Z,1.44
2022-09-22T06:06:52.159Z,1.53
2022-09-22T06:09:18.515Z,1.58
2022-09-22T06:11:44.877Z,1.69
2022-09-22T06:14:11.254Z,1.54
2022-09-22T06:16:37.638Z,1.44
2022-09-22T06:19:04.019Z,1.53
2022-09-22T06:21:30.396Z,1.69
2022-09-22T06:23:56.774Z,1.49
2022-09-22T06:26:23.173Z,1.52
2022-09-22T06:28:49.542Z,1.45
2022-09-22T06:31:15.970Z,1.43
2022-09-22T06:33:42.472Z,1.37
2022-09-22T06:36:08.772Z,1.36
2022-09-22T06:38:35.142Z,1.42
2022-09-22T06:41:01.650Z,1.47
2022-09-22T06:43:28.172Z,1.34
2022-09-22T06:45:55.943Z,1.56
2022-09-22T06:48:22.378Z,1.36
2022-09-22T06:50:49.042Z,1.53
2022-09-22T06:53:16.101Z,1.32
2022-09-22T06:55:42.478Z,1.46
2022-09-22T06:58:09.027Z,1.44
2022-09-22T07:00:35.474Z,1.34
2022-09-22T07:03:01.872Z,1.35
2022-09-22T07:05:28.261Z,1.42
2022-09-22T07:07:54.711Z,1.35
2022-09-22T07:10:21.063Z,1.32
2022-09-22T07:12:47.450Z,1.54
2022-09-22T07:15:13.929Z,1.49
2022-09-22T07:17:40.239Z,1.39
2022-09-22T07:20:06.607Z,1.34
2022-09-22T07:22:32.976Z,1.38
2022-09-22T07:24:59.336Z,1.33
2022-09-22T07:27:25.688Z,1.46
2022-09-22T07:29:52.056Z,1.43
2022-09-22T07:32:18.408Z,1.45
2022-09-22T07:34:44.785Z,1.46
2022-09-22T07:37:11.148Z,1.49
2022-09-22T07:39:37.516Z,1.49
2022-09-22T07:42:03.884Z,1.42
2022-09-22T07:44:30.246Z,1.54
2022-09-22T07:46:56.627Z,1.57
2022-09-22T07:49:23.012Z,1.89
2022-09-22T07:51:49.373Z,1.87
2022-09-22T07:54:15.743Z,2.03
2022-09-22T07:56:42.117Z,2.27
2022-09-22T07:59:08.477Z,2.15
2022-09-22T08:01:34.865Z,2.44
2022-09-22T08:04:01.253Z,2.71
2022-09-22T08:06:27.616Z,2.79
2022-09-22T08:08:53.986Z,3.04
2022-09-22T08:11:20.452Z,3.39
2022-09-22T08:13:46.811Z,3.56
2022-09-22T08:16:13.204Z,3.71
2022-09-22T08:18:39.617Z,3.98
2022-09-22T08:21:05.981Z,4.50
2022-09-22T08:23:32.353Z,5.06
2022-09-22T08:25:58.744Z,4.76
2022-09-22T08:28:25.099Z,5.00
2022-09-22T08:30:51.467Z,5.55
2022-09-22T08:33:17.843Z,6.11
2022-09-22T08:35:44.204Z,6.21
2022-09-22T08:38:12.836Z,6.46
2022-09-22T08:40:39.466Z,6.85
2022-09-22T08:43:05.840Z,7.25
2022-09-22T08:45:32.139Z,7.17
2022-09-22T08:47:58.504Z,7.39
2022-09-22T08:50:24.861Z,7.83
2022-09-22T08:52:51.229Z,7.85
2022-09-22T08:55:17.605Z,7.70
2022-09-22T08:57:43.982Z,7.68
2022-09-22T09:00:10.377Z,7.43
2022-09-22T09:02:36.852Z,8.08
2022-09-22T09:05:03.253Z,8.10
2022-09-22T09:07:29.621Z,8.48
2022-09-22T09:09:55.993Z,8.31
2022-09-22T09:12:22.381Z,8.12
2022-09-22T09:14:48.767Z,8.41
2022-09-22T09:17:15.142Z,8.42
2022-09-22T09:19:41.504Z,8.47
2022-09-22T09:22:07.870Z,8.23
2022-09-22T09:27:20.569Z,8.50
2022-09-22T09:29:46.937Z,8.60
2022-09-22T09:32:13.308Z,8.47
2022-09-22T09:34:39.684Z,8.91
2022-09-22T09:37:06.050Z,8.73
2022-09-22T09:39:32.434Z,8.39
2022-09-22T09:41:58.803Z,8.11
2022-09-22T09:44:25.186Z,8.42
2022-09-22T09:46:51.557Z,8.71
2022-09-22T09:49:17.917Z,8.35
2022-09-22T09:51:44.444Z,8.81
2022-09-22T09:54:16.034Z,8.39
2022-09-22T09:56:43.543Z,9.13
2022-09-22T09:59:09.910Z,8.89
2022-09-22T10:01:36.295Z,9.00
2022-09-22T10:04:02.710Z,8.57
2022-09-22T10:06:29.155Z,8.86
2022-09-22T10:08:55.514Z,8.44
2022-09-22T10:11:21.883Z,8.82
2022-09-22T10:13:48.249Z,9.00
2022-09-22T10:16:14.678Z,9.27
2022-09-22T10:18:41.082Z,9.16
2022-09-22T10:21:07.457Z,9.39
2022-09-22T10:23:33.826Z,9.55
2022-09-22T10:26:00.201Z,9.21
2022-09-22T10:28:26.568Z,9.55
2022-09-22T10:30:52.963Z,10.06
2022-09-22T10:33:19.458Z,10.09
2022-09-22T10:35:45.821Z,9.76
2022-09-22T10:38:12.194Z,9.84
2022-09-22T10:40:38.678Z,10.23
2022-09-22T10:43:05.098Z,10.56
2022-09-22T10:45:31.459Z,10.63
2022-09-22T10:47:57.873Z,10.63
2022-09-22T10:50:24.245Z,10.82
2022-09-22T10:52:50.599Z,10.64
2022-09-22T10:55:16.968Z,11.05
2022-09-22T10:57:43.332Z,11.73
2022-09-22T11:00:09.700Z,11.29
2022-09-22T11:02:36.090Z,12.11
2022-09-22T11:05:02.543Z,12.48
2022-09-22T11:07:28.945Z,13.32
2022-09-22T11:09:55.327Z,14.01
2022-09-22T11:12:21.692Z,14.95
2022-09-22T11:14:48.065Z,15.52
2022-09-22T11:17:14.439Z,18.26
2022-09-22T11:19:40.815Z,20.23
2022-09-22T11:22:07.171Z,21.94
2022-09-22T11:24:33.555Z,23.08
2022-09-22T11:26:59.929Z,25.55
2022-09-22T11:29:26.305Z,27.57
2022-09-22T11:31:52.767Z,29.93
2022-09-22T11:34:19.140Z,32.78
2022-09-22T11:36:50.712Z,33.52
2022-09-22T11:39:18.010Z,33.72
2022-09-22T11:41:44.380Z,36.20
2022-09-22T11:44:10.778Z,35.21
2022-09-22T11:46:37.210Z,37.33
2022-09-22T11:49:03.584Z,37.48
2022-09-22T11:51:29.964Z,37.06
2022-09-22T11:53:56.351Z,38.43
2022-09-22T11:56:22.722Z,38.41
2022-09-22T11:58:49.125Z,39.03
2022-09-22T12:01:15.486Z,38.75
2022-09-22T12:03:42.017Z,38.25
2022-09-22T12:06:08.502Z,39.35
2022-09-22T12:08:34.880Z,39.32
2022-09-22T12:11:01.249Z,39.80
2022-09-22T12:13:27.612Z,39.83
2022-09-22T12:15:54.051Z,40.08
2022-09-22T12:18:20.480Z,40.21
2022-09-22T12:20:46.843Z,40.17
2022-09-22T12:23:13.231Z,40.27
2022-09-22T12:25:48.000Z,39.88
2022-09-22T12:28:15.280Z,39.80
2022-09-22T12:30:41.689Z,41.34
2022-09-22T12:33:08.076Z,40.44
2022-09-22T12:35:34.470Z,40.08
2022-09-22T12:38:00.855Z,40.35
2022-09-22T12:40:27.295Z,40.94
2022-09-22T12:42:53.715Z,40.79
2022-09-22T12:45:20.083Z,40.26
2022-09-22T12:47:46.458Z,40.67
2022-09-22T12:50:12.844Z,40.04
2022-09-22T12:52:39.200Z,40.61
2022-09-22T12:55:05.573Z,39.77
2022-09-22T12:57:31.969Z,38.94
2022-09-22T12:59:58.332Z,38.87
2022-09-22T13:02:24.731Z,39.23
2022-09-22T13:04:51.120Z,39.96
2022-09-22T13:07:17.491Z,38.35
2022-09-22T13:09:43.860Z,38.71
2022-09-22T13:12:10.246Z,37.59
2022-09-22T13:14:36.612Z,36.70
2022-09-22T13:17:02.994Z,36.39
2022-09-22T13:19:29.586Z,37.17
2022-09-22T13:21:56.000Z,36.24
2022-09-22T13:24:26.600Z,35.86
2022-09-22T13:26:53.783Z,36.30
2022-09-22T13:29:20.198Z,36.18
2022-09-22T13:31:46.561Z,36.37
2022-09-22T13:34:12.945Z,35.00
2022-09-22T13:36:39.326Z,34.18
2022-09-22T13:39:05.701Z,35.03
2022-09-22T13:41:32.074Z,34.76
2022-09-22T13:43:58.496Z,33.61
2022-09-22T13:46:24.914Z,33.77
2022-09-22T13:48:51.310Z,34.53
2022-09-22T13:51:17.692Z,33.66
2022-09-22T13:53:44.065Z,33.20
2022-09-22T13:56:10.438Z,33.66
2022-09-22T13:58:36.828Z,32.61
2022-09-22T14:01:13.410Z,32.48
2022-09-22T14:03:40.386Z,32.52
2022-09-22T14:06:06.755Z,30.21
2022-09-22T14:08:33.133Z,30.14
2022-09-22T14:10:59.518Z,29.37
2022-09-22T14:13:25.904Z,28.67
2022-09-22T14:15:52.285Z,28.85
2022-09-22T14:18:18.668Z,29.06
2022-09-22T14:20:45.040Z,28.80
2022-09-22T14:23:11.423Z,28.06
2022-09-22T14:25:37.801Z,28.59
2022-09-22T14:28:04.281Z,28.57
2022-09-22T14:30:30.660Z,29.01
2022-09-22T14:32:57.042Z,28.97
2022-09-22T14:35:23.429Z,27.80
2022-09-22T14:37:49.813Z,28.27
2022-09-22T14:40:16.234Z,27.47
2022-09-22T14:42:42.652Z,27.69
2022-09-22T14:45:09.039Z,27.73
2022-09-22T14:47:35.407Z,27.33
2022-09-22T14:50:01.783Z,27.87
2022-09-22T14:52:30.907Z,27.70
2022-09-22T14:54:57.275Z,27.22
2022-09-22T14:57:23.653Z,26.79
2022-09-22T14:59:50.124Z,27.30
2022-09-22T15:02:16.519Z,27.31
2022-09-22T15:04:42.917Z,25.99
2022-09-22T15:07:09.088Z,26.51
2022-09-22T15:09:35.462Z,26.23
2022-09-22T15:12:01.840Z,25.62
2022-09-22T15:14:28.216Z,25.54
2022-09-22T15:16:54.603Z,25.08
2022-09-22T15:19:20.978Z,25.38
2022-09-22T15:21:47.356Z,24.79
2022-09-22T15:24:13.742Z,24.45
2022-09-22T15:26:40.113Z,24.61
2022-09-22T15:29:06.476Z,24.48
2022-09-22T15:31:32.889Z,23.17
2022-09-22T15:33:59.317Z,24.16
2022-09-22T15:36:25.691Z,24.42
2022-09-22T15:38:52.086Z,22.90
2022-09-22T15:41:18.458Z,23.30
2022-09-22T15:43:45.027Z,23.70
2022-09-22T15:46:11.425Z,23.04
2022-09-22T15:48:37.865Z,23.22
2022-09-22T15:51:04.241Z,23.09
2022-09-22T15:53:30.622Z,22.32
2022-09-22T15:55:57.002Z,23.32
2022-09-22T15:58:23.388Z,22.29
2022-09-22T16:00:49.816Z,22.81
2022-09-22T16:03:16.332Z,22.69
2022-09-22T16:05:42.760Z,21.91
2022-09-22T16:08:09.119Z,23.21
2022-09-22T16:10:35.492Z,22.74
2022-09-22T16:13:01.860Z,22.26
2022-09-22T16:15:28.245Z,22.55
2022-09-22T16:17:54.609Z,21.72
2022-09-22T16:20:20.972Z,21.66
2022-09-22T16:22:47.348Z,21.37
2022-09-22T16:25:13.723Z,21.34
2022-09-22T16:27:40.097Z,21.12
2022-09-22T16:30:06.477Z,20.03
2022-09-22T16:32:32.840Z,20.37
2022-09-22T16:34:59.215Z,20.40
2022-09-22T16:37:25.594Z,20.74
2022-09-22T16:39:51.956Z,20.22
2022-09-22T16:42:21.646Z,20.92
2022-09-22T16:44:49.851Z,20.38
2022-09-22T16:47:16.221Z,19.38
2022-09-22T16:49:42.591Z,19.31
2022-09-22T16:52:08.965Z,19.40
2022-09-22T16:54:35.328Z,19.19
2022-09-22T16:57:01.696Z,18.68
2022-09-22T16:59:28.059Z,17.75
2022-09-22T17:01:54.473Z,18.68
2022-09-22T17:04:20.881Z,18.75
2022-09-22T17:06:47.260Z,18.98
2022-09-22T17:09:13.658Z,18.64
2022-09-22T17:11:40.046Z,18.53
2022-09-22T17:14:11.282Z,18.16
2022-09-22T17:16:38.677Z,18.28
2022-09-22T17:19:05.090Z,18.68
2022-09-22T17:21:34.238Z,18.61
2022-09-22T17:24:00.996Z,18.53
2022-09-22T17:26:27.378Z,18.88
2022-09-22T17:28:53.755Z,18.53
2022-09-22T17:31:20.179Z,18.57
2022-09-22T17:33:51.331Z,18.11
2022-09-22T17:36:18.805Z,18.10
2022-09-22T17:38:45.211Z,18.36
2022-09-22T17:41:11.582Z,18.17
2022-09-22T17:43:37.953Z,18.19
2022-09-22T17:46:04.342Z,17.84
2022-09-22T17:48:30.708Z,17.61
2022-09-22T17:50:57.090Z,18.51
2022-09-22T17:53:23.457Z,17.91
2022-09-22T17:55:49.833Z,17.90
2022-09-22T17:58:16.218Z,17.61
2022-09-22T18:00:42.595Z,17.23
2022-09-22T18:03:09.028Z,16.73
2022-09-22T18:05:35.421Z,17.54
2022-09-22T18:08:01.800Z,17.46
2022-09-22T18:10:28.172Z,17.61
2022-09-22T18:12:54.537Z,17.61
2022-09-22T18:15:20.920Z,16.95
2022-09-22T18:17:47.291Z,16.91
2022-09-22T18:20:13.668Z,17.23
2022-09-22T18:22:40.047Z,17.06
2022-09-22T18:25:06.422Z,17.38
2022-09-22T18:27:32.797Z,17.46
2022-09-22T18:29:59.164Z,18.07
2022-09-22T18:32:25.558Z,17.14
2022-09-22T18:34:51.937Z,17.39
2022-09-22T18:37:18.311Z,16.40
2022-09-22T18:39:44.786Z,16.16
2022-09-22T18:42:11.175Z,16.32
2022-09-22T18:44:37.550Z,16.76
2022-09-22T18:47:03.919Z,16.05
2022-09-22T18:49:30.283Z,16.43
2022-09-22T18:51:56.670Z,17.01
2022-09-22T18:54:23.043Z,16.61
2022-09-22T18:56:49.409Z,16.42
2022-09-22T18:59:15.781Z,17.29
2022-09-22T19:01:42.251Z,15.90
2022-09-22T19:04:08.669Z,16.64
2022-09-22T19:06:35.042Z,16.31
2022-09-22T19:09:01.454Z,16.13
2022-09-22T19:11:27.929Z,15.91
2022-09-22T19:13:54.308Z,15.71
2022-09-22T19:16:20.739Z,15.75
2022-09-22T19:18:47.125Z,15.89
2022-09-22T19:21:14.326Z,15.51
2022-09-22T19:23:40.810Z,15.65
2022-09-22T19:26:07.194Z,15.78
2022-09-22T19:28:33.567Z,15.44
2022-09-22T19:30:59.963Z,15.58
2022-09-22T19:33:26.371Z,15.47
2022-09-22T19:35:52.742Z,15.49
2022-09-22T19:38:19.107Z,14.84
2022-09-22T19:40:45.504Z,14.71
2022-09-22T19:43:11.925Z,14.43
2022-09-22T19:45:38.295Z,14.56
2022-09-22T19:48:04.680Z,14.23
2022-09-22T19:50:31.058Z,14.36
2022-09-22T19:52:57.450Z,13.99
2022-09-22T19:55:23.829Z,14.35
2022-09-22T19:57:50.216Z,13.62
2022-09-22T20:00:16.583Z,14.18
2022-09-22T20:02:42.987Z,13.46
2022-09-22T20:05:09.379Z,13.72
2022-09-22T20:07:35.746Z,13.35
2022-09-22T20:10:02.416Z,13.78
2022-09-22T20:12:28.868Z,13.36
2022-09-22T20:14:55.242Z,12.94
2022-09-22T20:17:21.610Z,13.37
2022-09-22T20:19:47.975Z,13.56
2022-09-22T20:22:14.345Z,13.06
2022-09-22T20:24:40.708Z,13.06
2022-09-22T20:27:07.071Z,12.90
2022-09-22T20:29:33.453Z,12.85
2022-09-22T20:31:59.820Z,13.09
2022-09-22T20:34:26.179Z,12.68
2022-09-22T20:36:52.548Z,13.00
2022-09-22T20:39:18.903Z,12.65
2022-09-22T20:41:45.286Z,12.21
2022-09-22T20:44:11.650Z,12.18
2022-09-22T20:46:38.070Z,12.54
2022-09-22T20:49:04.520Z,11.92
2022-09-22T20:51:30.880Z,12.19
2022-09-22T20:53:57.261Z,11.90
2022-09-22T20:56:23.638Z,12.77
2022-09-22T20:58:50.017Z,12.00
2022-09-22T21:01:16.405Z,11.94
2022-09-22T21:03:42.830Z,11.96
2022-09-22T21:06:09.197Z,11.71
2022-09-22T21:08:35.565Z,11.93
2022-09-22T21:11:01.957Z,11.47
2022-09-22T21:13:28.326Z,11.49
2022-09-22T21:15:54.737Z,11.99
2022-09-22T21:18:21.117Z,11.23
2022-09-22T21:20:47.487Z,11.56
2022-09-22T21:23:13.915Z,11.08
2022-09-22T21:25:40.276Z,11.39
2022-09-22T21:28:06.648Z,11.59
2022-09-22T21:30:33.008Z,11.14
2022-09-22T21:32:59.372Z,11.15
2022-09-22T21:35:25.736Z,10.90
2022-09-22T21:37:52.128Z,10.72
2022-09-22T21:40:18.568Z,10.99
2022-09-22T21:42:44.996Z,10.76
2022-09-22T21:45:11.370Z,10.61
2022-09-22T21:47:37.749Z,10.71
2022-09-22T21:50:04.131Z,10.71
2022-09-22T21:52:30.524Z,10.59
2022-09-22T21:54:56.893Z,10.71
2022-09-22T21:57:23.274Z,11.02
2022-09-22T21:59:50.722Z,10.49
2022-09-22T22:02:19.224Z,10.48
2022-09-22T22:04:45.601Z,10.21
2022-09-22T22:07:11.967Z,10.14
2022-09-22T22:09:38.342Z,9.89
2022-09-22T22:12:04.702Z,10.30
2022-09-22T22:14:31.086Z,9.87
2022-09-22T22:16:57.461Z,9.71
2022-09-22T22:19:23.838Z,10.60
2022-09-22T22:21:50.400Z,10.16
2022-09-22T22:24:16.808Z,9.80
2022-09-22T22:26:43.177Z,9.77
2022-09-22T22:29:09.562Z,9.54
2022-09-22T22:31:35.940Z,9.36
2022-09-22T22:34:02.302Z,9.65
2022-09-22T22:36:28.669Z,9.49
2022-09-22T22:38:55.039Z,9.78
2022-09-22T22:41:21.403Z,9.38
2022-09-22T22:43:47.770Z,9.64
2022-09-22T22:46:14.187Z,9.57
2022-09-22T22:48:40.618Z,9.46
2022-09-22T22:51:07.590Z,9.11
2022-09-22T22:53:34.010Z,9.31
2022-09-22T22:56:00.380Z,9.26
2022-09-22T22:58:26.750Z,9.34
2022-09-22T23:00:53.117Z,9.18
2022-09-22T23:03:19.474Z,9.11
2022-09-22T23:05:45.842Z,9.01
2022-09-22T23:08:12.226Z,8.89
2022-09-22T23:10:38.588Z,8.99
2022-09-22T23:13:04.954Z,8.93
2022-09-22T23:15:31.346Z,8.69
2022-09-22T23:17:57.719Z,8.73
2022-09-22T23:20:24.096Z,8.75
2022-09-22T23:22:50.470Z,8.75
2022-09-22T23:25:16.932Z,8.85
2022-09-22T23:27:43.299Z,8.60
2022-09-22T23:30:09.660Z,8.78
2022-09-22T23:32:36.024Z,8.92
2022-09-22T23:35:02.389Z,8.96
2022-09-22T23:37:28.758Z,8.69
2022-09-22T23:39:55.127Z,8.57
2022-09-22T23:42:21.488Z,8.07
2022-09-22T23:44:47.849Z,8.43
2022-09-22T23:47:16.220Z,8.41
2022-09-22T23:49:42.744Z,8.64
2022-09-22T23:52:09.109Z,8.53
2022-09-22T23:54:35.476Z,8.47
2022-09-22T23:57:01.837Z,8.16
2022-09-22T23:59:28.202Z,7.97
